Time;durP1;ratioP1;P1;durP2;ratioP2;P2;SDS_P1;SDS_P2;PMS_P1;PMS_P2;Temp;Humidity;BMP_temperature;BMP_pressure;BME280_temperature;BME280_humidity;BME280_pressure;Samples;Min_cycle;Max_cycle;Signal;HPM_P1;HPM_P2
2023/10/18 00:01:29;;;;;;;5.53;3.45;;;;;;;;;;5033082;28;20065;-61
2023/10/18 00:03:55;;;;;;;5.68;3.10;;;;;;;;;;5036873;28;20095;-61
2023/10/18 00:06:22;;;;;;;6.05;3.47;;;;;;;;;;5032524;28;20075;-60
2023/10/18 00:08:48;;;;;;;6.57;3.33;;;;;;;;;;5032969;28;20163;-61
2023/10/18 00:11:17;;;;;;;5.95;3.38;;;;;;;;;;5032686;28;20072;-59
2023/10/18 00:13:44;;;;;;;8.38;3.25;;;;;;;;;;5034084;28;20072;-61
2023/10/18 00:16:09;;;;;;;6.03;3.55;;;;;;;;;;5033556;28;20057;-61
2023/10/18 00:18:35;;;;;;;6.25;3.30;;;;;;;;;;5034050;28;20150;-61
2023/10/18 00:21:02;;;;;;;6.45;3.05;;;;;;;;;;5029749;28;20127;-61
2023/10/18 00:23:27;;;;;;;6.32;3.17;;;;;;;;;;5032776;28;20067;-61
2023/10/18 00:25:56;;;;;;;5.47;3.25;;;;;;;;;;5036782;28;20075;-61
2023/10/18 00:28:22;;;;;;;6.38;3.38;;;;;;;;;;5036098;28;20049;-61
2023/10/18 00:30:50;;;;;;;7.90;3.40;;;;;;;;;;5036180;28;20106;-61
2023/10/18 00:33:18;;;;;;;6.85;3.40;;;;;;;;;;5036201;28;20071;-60
2023/10/18 00:35:44;;;;;;;6.05;3.22;;;;;;;;;;5034750;28;20053;-61
2023/10/18 00:38:12;;;;;;;5.88;3.10;;;;;;;;;;5035011;28;20087;-60
2023/10/18 00:40:40;;;;;;;5.03;3.42;;;;;;;;;;5032806;28;20135;-60
2023/10/18 00:45:43;;;;;;;;;;;;;;;;;;5036474;28;20065;-61
2023/10/18 00:48:11;;;;;;;5.82;3.30;;;;;;;;;;5034918;28;20578;-61
2023/10/18 00:50:41;;;;;;;5.55;3.50;;;;;;;;;;5035724;28;20064;-61
2023/10/18 00:53:08;;;;;;;5.18;3.15;;;;;;;;;;5038538;28;20092;-59
2023/10/18 00:55:34;;;;;;;5.35;3.17;;;;;;;;;;5036633;28;20044;-61
2023/10/18 00:58:00;;;;;;;5.65;3.30;;;;;;;;;;5030327;28;20148;-61
2023/10/18 01:00:26;;;;;;;5.55;3.05;;;;;;;;;;5034656;28;20643;-61
2023/10/18 01:02:57;;;;;;;6.60;3.33;;;;;;;;;;5031212;28;20037;-61
2023/10/18 01:05:22;;;;;;;8.63;3.28;;;;;;;;;;5033402;28;20065;-61
2023/10/18 01:07:52;;;;;;;6.32;3.17;;;;;;;;;;5031158;28;20264;-61
2023/10/18 01:10:23;;;;;;;6.95;3.38;;;;;;;;;;5028105;28;20069;-61
2023/10/18 01:12:52;;;;;;;6.40;3.50;;;;;;;;;;5030165;28;20069;-62
2023/10/18 01:15:19;;;;;;;5.15;3.15;;;;;;;;;;5032999;28;20069;-61
2023/10/18 01:17:45;;;;;;;6.00;3.30;;;;;;;;;;5031414;28;20065;-61
2023/10/18 01:20:27;;;;;;;5.03;3.10;;;;;;;;;;5027527;28;21230;-60
2023/10/18 01:22:53;;;;;;;6.18;3.30;;;;;;;;;;5034159;28;20124;-60
2023/10/18 01:25:19;;;;;;;5.57;3.47;;;;;;;;;;5031336;28;20065;-61
2023/10/18 01:27:45;;;;;;;5.55;3.28;;;;;;;;;;5033369;28;20091;-61
2023/10/18 01:30:14;;;;;;;5.38;2.95;;;;;;;;;;5032119;28;20041;-61
2023/10/18 01:32:40;;;;;;;5.15;3.10;;;;;;;;;;5033242;28;20064;-61
2023/10/18 01:35:05;;;;;;;7.28;3.22;;;;;;;;;;5033160;28;20122;-61
2023/10/18 01:37:31;;;;;;;5.50;3.38;;;;;;;;;;5035417;28;20030;-61
2023/10/18 01:40:12;;;;;;;5.25;3.03;;;;;;;;;;5035385;28;20017;-61
2023/10/18 01:42:38;;;;;;;5.60;3.33;;;;;;;;;;5033624;28;20083;-60
2023/10/18 01:45:06;;;;;;;5.38;3.10;;;;;;;;;;5034221;28;20119;-61
2023/10/18 01:47:35;;;;;;;6.82;3.50;;;;;;;;;;5033469;28;20130;-61
2023/10/18 01:50:01;;;;;;;5.60;3.05;;;;;;;;;;5033408;28;20121;-59
2023/10/18 01:52:29;;;;;;;5.47;2.83;;;;;;;;;;5032963;28;20110;-61
2023/10/18 01:54:54;;;;;;;5.35;3.28;;;;;;;;;;5032744;28;20608;-60
2023/10/18 01:57:20;;;;;;;5.25;3.00;;;;;;;;;;5035808;28;20033;-61
2023/10/18 01:59:49;;;;;;;5.68;2.85;;;;;;;;;;5032372;28;20044;-61
2023/10/18 02:02:15;;;;;;;5.10;3.40;;;;;;;;;;5035469;28;20166;-61
2023/10/18 02:04:41;;;;;;;4.53;2.80;;;;;;;;;;5033903;28;20052;-60
2023/10/18 02:07:07;;;;;;;4.75;3.00;;;;;;;;;;5029600;28;20029;-61
2023/10/18 02:09:36;;;;;;;4.88;3.08;;;;;;;;;;5026669;28;20116;-61
2023/10/18 02:12:04;;;;;;;5.43;2.80;;;;;;;;;;5033168;28;20061;-59
2023/10/18 02:14:33;;;;;;;5.75;3.10;;;;;;;;;;5033573;28;20503;-61
2023/10/18 02:16:59;;;;;;;6.00;3.30;;;;;;;;;;5035098;28;20053;-61
2023/10/18 02:19:26;;;;;;;5.55;3.20;;;;;;;;;;5035682;28;20057;-61
2023/10/18 02:21:52;;;;;;;5.00;2.90;;;;;;;;;;5032086;28;20069;-59
2023/10/18 02:24:18;;;;;;;6.07;3.88;;;;;;;;;;5032271;28;20554;-61
2023/10/18 02:26:56;;;;;;;5.72;3.20;;;;;;;;;;5033800;28;20044;-61
2023/10/18 02:29:22;;;;;;;4.88;2.75;;;;;;;;;;5028532;28;20626;-61
2023/10/18 02:31:49;;;;;;;4.88;2.88;;;;;;;;;;5028638;28;20052;-61
2023/10/18 02:34:14;;;;;;;5.70;3.10;;;;;;;;;;5032317;28;20072;-61
2023/10/18 02:36:47;;;;;;;4.90;3.00;;;;;;;;;;5032655;28;20474;-60
2023/10/18 02:39:13;;;;;;;5.85;3.30;;;;;;;;;;5032209;28;20099;-61
2023/10/18 02:41:39;;;;;;;5.45;3.38;;;;;;;;;;5031992;28;20084;-62
2023/10/18 02:44:11;;;;;;;5.65;3.30;;;;;;;;;;5034329;28;20104;-59
2023/10/18 02:46:36;;;;;;;5.18;3.00;;;;;;;;;;5035040;28;20073;-60
2023/10/18 02:49:07;;;;;;;6.05;3.17;;;;;;;;;;5029194;28;20094;-60
2023/10/18 02:51:33;;;;;;;4.60;2.72;;;;;;;;;;5031531;28;20057;-62
2023/10/18 02:54:17;;;;;;;4.88;2.80;;;;;;;;;;5035841;28;20029;-61
2023/10/18 02:56:50;;;;;;;5.57;3.08;;;;;;;;;;5035915;28;20111;-62
2023/10/18 02:59:20;;;;;;;5.97;3.40;;;;;;;;;;5033598;28;20065;-61
2023/10/18 03:01:48;;;;;;;4.10;2.78;;;;;;;;;;5035919;28;20068;-61
2023/10/18 03:04:19;;;;;;;4.20;2.70;;;;;;;;;;5031467;28;20056;-61
2023/10/18 03:06:47;;;;;;;4.88;2.72;;;;;;;;;;5031967;28;20068;-61
2023/10/18 03:09:26;;;;;;;5.57;2.97;;;;;;;;;;5033206;28;20075;-61
2023/10/18 03:11:55;;;;;;;7.07;2.90;;;;;;;;;;5036140;28;20065;-60
2023/10/18 03:14:23;;;;;;;4.38;2.38;;;;;;;;;;5031965;28;20078;-60
2023/10/18 03:16:49;;;;;;;5.18;3.10;;;;;;;;;;5030893;28;20108;-61
2023/10/18 03:19:17;;;;;;;4.65;2.80;;;;;;;;;;5031758;28;20715;-61
2023/10/18 03:21:47;;;;;;;4.70;2.72;;;;;;;;;;5034988;28;20495;-61
2023/10/18 03:24:13;;;;;;;5.13;2.90;;;;;;;;;;5035112;28;20075;-60
2023/10/18 03:26:40;;;;;;;4.25;2.70;;;;;;;;;;5035025;28;20037;-61
2023/10/18 03:29:11;;;;;;;4.45;2.85;;;;;;;;;;5031044;28;20546;-61
2023/10/18 03:31:47;;;;;;;5.05;3.15;;;;;;;;;;5032099;28;20069;-60
2023/10/18 03:34:19;;;;;;;7.03;2.63;;;;;;;;;;5033017;28;20095;-60
2023/10/18 03:36:54;;;;;;;4.45;2.90;;;;;;;;;;5034492;28;20617;-61
2023/10/18 03:39:21;;;;;;;4.60;2.85;;;;;;;;;;5035070;28;20057;-60
2023/10/18 03:41:47;;;;;;;4.95;2.67;;;;;;;;;;5035760;28;20115;-61
2023/10/18 03:44:13;;;;;;;4.13;2.70;;;;;;;;;;5037846;28;20167;-59
2023/10/18 03:46:39;;;;;;;5.35;2.65;;;;;;;;;;5037857;28;20057;-60
2023/10/18 03:49:08;;;;;;;5.18;2.55;;;;;;;;;;5036942;28;20521;-59
2023/10/18 03:51:33;;;;;;;4.80;2.80;;;;;;;;;;5033733;28;20060;-60
2023/10/18 03:54:00;;;;;;;4.68;2.67;;;;;;;;;;5025775;28;20075;-59
2023/10/18 03:56:26;;;;;;;4.60;2.83;;;;;;;;;;5035806;28;20486;-61
2023/10/18 03:59:01;;;;;;;5.53;2.95;;;;;;;;;;5039100;28;20071;-60
2023/10/18 04:01:26;;;;;;;;;;;;;;;;;;5032839;28;20067;-61
2023/10/18 04:03:52;;;;;;;5.18;2.70;;;;;;;;;;5036165;28;19991;-59
2023/10/18 04:06:28;;;;;;;4.18;2.53;;;;;;;;;;5038899;28;20029;-61
2023/10/18 04:08:58;;;;;;;5.22;2.65;;;;;;;;;;5035167;28;20057;-61
2023/10/18 04:11:26;;;;;;;5.47;2.67;;;;;;;;;;5030399;28;20052;-61
2023/10/18 04:13:52;;;;;;;4.50;2.45;;;;;;;;;;5034844;28;20567;-59
2023/10/18 04:16:18;;;;;;;3.70;2.30;;;;;;;;;;5031370;28;20069;-61
2023/10/18 04:18:44;;;;;;;4.82;2.67;;;;;;;;;;5030402;28;20065;-61
2023/10/18 04:21:15;;;;;;;4.68;2.90;;;;;;;;;;5032743;28;20092;-60
2023/10/18 04:23:46;;;;;;;5.07;2.67;;;;;;;;;;5036460;28;20076;-60
2023/10/18 04:26:18;;;;;;;4.18;2.33;;;;;;;;;;5037987;28;20057;-60
2023/10/18 04:28:45;;;;;;;6.00;2.97;;;;;;;;;;5037271;28;20122;-61
2023/10/18 04:31:12;;;;;;;3.80;2.08;;;;;;;;;;5039812;28;20529;-61
2023/10/18 04:33:41;;;;;;;6.38;2.53;;;;;;;;;;5037131;28;20064;-60
2023/10/18 04:36:11;;;;;;;4.80;2.60;;;;;;;;;;5037217;28;20065;-61
2023/10/18 04:38:42;;;;;;;3.92;2.58;;;;;;;;;;5033643;28;20060;-60
2023/10/18 04:41:08;;;;;;;4.65;2.60;;;;;;;;;;5034909;28;20137;-60
2023/10/18 04:43:34;;;;;;;4.05;2.60;;;;;;;;;;5035745;28;20068;-61
2023/10/18 04:46:07;;;;;;;7.22;2.70;;;;;;;;;;5036338;28;20330;-58
2023/10/18 04:54:16;;;;;;;5.20;2.30;;;;;;;;;;5039886;28;20060;-61
2023/10/18 04:56:44;;;;;;;7.07;2.42;;;;;;;;;;5034818;28;20124;-60
2023/10/18 05:04:20;;;;;;;;;;;;;;;;;;5037387;28;20506;-61
2023/10/18 05:07:00;;;;;;;6.95;3.17;;;;;;;;;;5036121;28;20394;-62
2023/10/18 05:09:31;;;;;;;6.25;2.80;;;;;;;;;;5035639;28;20072;-61
2023/10/18 05:12:06;;;;;;;8.77;3.40;;;;;;;;;;5036966;28;20060;-61
2023/10/18 05:14:44;;;;;;;8.90;3.45;;;;;;;;;;5033911;28;20508;-61
2023/10/18 05:17:17;;;;;;;10.45;3.55;;;;;;;;;;5036401;28;20053;-61
2023/10/18 05:19:45;;;;;;;7.22;3.40;;;;;;;;;;5034030;28;20072;-61
2023/10/18 05:22:24;;;;;;;7.85;3.35;;;;;;;;;;5031150;28;20065;-61
2023/10/18 05:25:11;;;;;;;7.05;3.20;;;;;;;;;;5030029;28;20057;-61
2023/10/18 05:27:39;;;;;;;6.72;3.17;;;;;;;;;;5029391;28;20085;-63
2023/10/18 05:30:14;;;;;;;7.60;2.97;;;;;;;;;;5031294;28;20072;-62
2023/10/18 05:32:49;;;;;;;9.63;3.42;;;;;;;;;;5027855;28;20077;-62
2023/10/18 05:35:22;;;;;;;9.18;3.45;;;;;;;;;;5035014;28;20053;-62
2023/10/18 05:37:51;;;;;;;6.88;2.80;;;;;;;;;;5035950;28;20061;-61
2023/10/18 05:41:00;;;;;;;9.35;3.08;;;;;;;;;;5036828;28;20664;-60
2023/10/18 05:43:30;;;;;;;9.95;3.33;;;;;;;;;;5023156;28;20061;-61
2023/10/18 05:45:56;;;;;;;6.25;2.85;;;;;;;;;;5032963;28;20114;-61
2023/10/18 05:48:22;;;;;;;7.15;3.30;;;;;;;;;;5036185;28;20061;-62
2023/10/18 05:51:25;;;;;;;9.10;3.17;;;;;;;;;;5034307;28;20069;-61
2023/10/18 05:53:49;;;;;;;10.65;3.45;;;;;;;;;;5029405;28;20061;-60
2023/10/18 05:56:15;;;;;;;9.95;3.28;;;;;;;;;;5032109;28;20028;-61
2023/10/18 05:58:40;;;;;;;8.60;3.20;;;;;;;;;;5032100;28;20446;-61
2023/10/18 06:01:06;;;;;;;9.60;3.08;;;;;;;;;;5034433;28;20083;-61
2023/10/18 06:03:39;;;;;;;12.43;3.40;;;;;;;;;;5026775;28;20030;-60
2023/10/18 06:06:07;;;;;;;6.68;3.03;;;;;;;;;;5033335;28;20064;-61
2023/10/18 06:08:33;;;;;;;8.23;3.05;;;;;;;;;;5030150;28;20135;-60
2023/10/18 06:11:06;;;;;;;12.80;3.67;;;;;;;;;;5031013;28;20779;-60
2023/10/18 06:13:35;;;;;;;6.85;3.22;;;;;;;;;;5028301;28;20069;-61
2023/10/18 06:16:17;;;;;;;9.93;3.75;;;;;;;;;;5032594;28;20073;-62
2023/10/18 06:18:45;;;;;;;6.63;3.08;;;;;;;;;;5029525;28;20065;-61
2023/10/18 06:21:12;;;;;;;8.65;3.33;;;;;;;;;;5028715;28;20069;-62
2023/10/18 06:23:38;;;;;;;11.48;3.05;;;;;;;;;;5028049;28;20053;-61
2023/10/18 06:26:28;;;;;;;5.13;2.88;;;;;;;;;;5030465;28;20068;-61
2023/10/18 06:29:22;;;;;;;8.43;2.90;;;;;;;;;;5033022;28;20523;-61
2023/10/18 06:31:49;;;;;;;7.50;3.08;;;;;;;;;;5035313;28;20523;-62
2023/10/18 06:34:17;;;;;;;10.60;3.50;;;;;;;;;;5033941;28;20115;-62
2023/10/18 06:36:44;;;;;;;13.07;3.13;;;;;;;;;;5033893;28;20091;-61
2023/10/18 06:39:24;;;;;;;7.35;2.78;;;;;;;;;;5033589;28;20118;-62
2023/10/18 06:41:52;;;;;;;5.95;2.88;;;;;;;;;;5032781;28;20064;-61
2023/10/18 06:44:18;;;;;;;10.63;2.95;;;;;;;;;;5035912;28;20510;-62
2023/10/18 06:46:47;;;;;;;5.15;2.70;;;;;;;;;;5032343;28;20155;-62
2023/10/18 06:49:12;;;;;;;6.82;2.50;;;;;;;;;;5032417;28;20075;-60
2023/10/18 06:51:43;;;;;;;7.03;2.80;;;;;;;;;;5033353;28;20072;-62
2023/10/18 06:54:15;;;;;;;5.43;2.50;;;;;;;;;;5031523;28;20092;-62
2023/10/18 06:56:45;;;;;;;6.07;2.80;;;;;;;;;;5033635;28;20539;-61
2023/10/18 06:59:11;;;;;;;6.72;2.80;;;;;;;;;;5032058;28;20538;-60
2023/10/18 07:01:53;;;;;;;6.65;2.80;;;;;;;;;;5034267;28;20060;-61
2023/10/18 07:10:30;;;;;;;14.93;3.40;;;;;;;;;;5031946;28;20096;-61
2023/10/18 07:16:38;;;;;;;5.07;2.58;;;;;;;;;;5030505;28;20086;-60
2023/10/18 07:28:13;;;;;;;7.45;2.72;;;;;;;;;;5033221;28;20106;-61
2023/10/18 07:33:41;;;;;;;10.07;3.08;;;;;;;;;;5030636;28;20118;-61
2023/10/18 07:36:08;;;;;;;10.07;2.72;;;;;;;;;;5029524;28;20876;-62
2023/10/18 07:38:37;;;;;;;8.93;2.47;;;;;;;;;;5029956;28;20060;-61
2023/10/18 07:41:03;;;;;;;6.53;2.80;;;;;;;;;;5028731;28;20119;-63
2023/10/18 07:43:32;;;;;;;11.32;3.00;;;;;;;;;;5028583;28;20538;-60
2023/10/18 07:45:58;;;;;;;8.52;2.50;;;;;;;;;;5032684;28;20119;-62
2023/10/18 07:48:24;;;;;;;6.05;2.33;;;;;;;;;;5028569;28;20068;-62
2023/10/18 07:50:50;;;;;;;7.13;2.50;;;;;;;;;;5026985;28;20120;-63
2023/10/18 07:53:16;;;;;;;8.13;2.63;;;;;;;;;;5030743;28;20041;-61
2023/10/18 07:55:41;;;;;;;6.72;2.58;;;;;;;;;;5027315;28;20043;-61
2023/10/18 08:04:29;;;;;;;6.65;2.47;;;;;;;;;;5033375;28;20756;-60
2023/10/18 08:10:00;;;;;;;7.85;2.70;;;;;;;;;;5031181;28;20087;-62
2023/10/18 08:14:54;;;;;;;8.48;2.63;;;;;;;;;;5028315;28;20532;-60
2023/10/18 08:22:52;;;;;;;9.35;2.40;;;;;;;;;;5033596;28;20090;-63
2023/10/18 08:25:24;;;;;;;6.53;2.70;;;;;;;;;;5030855;28;20158;-60
2023/10/18 08:27:50;;;;;;;7.13;2.00;;;;;;;;;;5028557;28;20137;-61
2023/10/18 08:30:38;;;;;;;5.57;2.05;;;;;;;;;;5030567;28;20387;-60
2023/10/18 08:33:05;;;;;;;9.35;2.40;;;;;;;;;;5033280;28;20512;-60
2023/10/18 08:35:31;;;;;;;6.28;2.10;;;;;;;;;;5034388;28;20056;-58
2023/10/18 08:38:01;;;;;;;4.75;1.83;;;;;;;;;;5034840;28;20155;-61
2023/10/18 08:43:15;;;;;;;6.97;2.20;;;;;;;;;;5028354;28;20483;-60
2023/10/18 08:45:46;;;;;;;5.55;2.00;;;;;;;;;;5032182;28;20068;-61
2023/10/18 08:48:13;;;;;;;8.52;1.83;;;;;;;;;;5035778;28;20568;-55
2023/10/18 08:50:40;;;;;;;7.43;1.60;;;;;;;;;;5031587;28;20589;-60
2023/10/18 08:53:06;;;;;;;4.55;1.85;;;;;;;;;;5033227;28;20917;-60
2023/10/18 08:55:44;;;;;;;8.57;2.03;;;;;;;;;;5033731;28;20691;-60
2023/10/18 08:58:22;;;;;;;6.95;1.70;;;;;;;;;;5033387;28;20087;-61
2023/10/18 09:03:29;;;;;;;5.78;2.25;;;;;;;;;;5036623;28;20064;-61
2023/10/18 09:06:04;;;;;;;13.73;1.98;;;;;;;;;;5035160;28;20067;-61
2023/10/18 09:08:36;;;;;;;4.75;2.05;;;;;;;;;;5033833;28;20118;-61
2023/10/18 09:11:09;;;;;;;5.05;1.50;;;;;;;;;;5034089;28;20069;-62
2023/10/18 09:13:41;;;;;;;4.30;1.58;;;;;;;;;;5033941;28;20061;-60
2023/10/18 09:16:11;;;;;;;5.70;2.28;;;;;;;;;;5032649;28;20064;-61
2023/10/18 09:18:37;;;;;;;3.47;1.92;;;;;;;;;;5033242;28;20084;-62
2023/10/18 09:21:17;;;;;;;3.45;1.70;;;;;;;;;;5032070;28;20068;-62
2023/10/18 09:23:43;;;;;;;4.53;1.77;;;;;;;;;;5033568;28;20163;-61
2023/10/18 09:26:19;;;;;;;4.15;1.77;;;;;;;;;;5034101;28;20057;-61
2023/10/18 09:28:46;;;;;;;4.90;1.60;;;;;;;;;;5032420;28;20126;-61
2023/10/18 09:31:16;;;;;;;6.07;1.70;;;;;;;;;;5032896;28;20060;-61
2023/10/18 09:33:52;;;;;;;5.85;1.90;;;;;;;;;;5030965;28;20435;-60
2023/10/18 09:36:23;;;;;;;3.53;1.55;;;;;;;;;;5034085;28;20114;-61
2023/10/18 09:38:49;;;;;;;5.18;1.88;;;;;;;;;;5032918;28;20060;-61
2023/10/18 09:41:15;;;;;;;4.25;1.58;;;;;;;;;;5030799;28;20536;-60
2023/10/18 09:43:41;;;;;;;4.03;1.55;;;;;;;;;;5036325;28;20064;-62
2023/10/18 09:46:10;;;;;;;3.47;1.60;;;;;;;;;;5033232;28;20037;-62
2023/10/18 09:48:39;;;;;;;3.10;1.50;;;;;;;;;;5034585;28;20088;-61
2023/10/18 09:51:08;;;;;;;3.30;1.30;;;;;;;;;;5033879;28;20073;-61
2023/10/18 09:53:35;;;;;;;4.18;1.35;;;;;;;;;;5030129;28;20069;-60
2023/10/18 09:56:02;;;;;;;4.18;1.60;;;;;;;;;;5031002;28;20068;-61
2023/10/18 09:58:28;;;;;;;3.47;1.30;;;;;;;;;;5033877;28;20076;-61
2023/10/18 10:01:13;;;;;;;2.83;1.10;;;;;;;;;;5032406;28;20064;-61
2023/10/18 10:03:50;;;;;;;2.72;1.02;;;;;;;;;;5031097;28;20075;-61
2023/10/18 10:06:16;;;;;;;4.25;1.38;;;;;;;;;;5034209;28;20057;-61
2023/10/18 10:08:42;;;;;;;4.18;1.45;;;;;;;;;;5036035;28;20052;-61
2023/10/18 10:11:14;;;;;;;3.33;1.00;;;;;;;;;;5033940;28;20144;-61
2023/10/18 10:13:42;;;;;;;6.07;1.55;;;;;;;;;;5030092;28;22725;-61
2023/10/18 10:16:09;;;;;;;5.35;1.20;;;;;;;;;;5031326;28;20057;-61
2023/10/18 10:18:37;;;;;;;2.92;1.15;;;;;;;;;;5032987;28;20087;-59
2023/10/18 10:21:07;;;;;;;5.15;1.17;;;;;;;;;;5034566;28;20065;-61
2023/10/18 10:23:33;;;;;;;2.65;1.00;;;;;;;;;;5032321;28;20061;-61
2023/10/18 10:26:11;;;;;;;4.22;1.27;;;;;;;;;;5033613;28;20119;-60
2023/10/18 10:31:54;;;;;;;4.75;1.38;;;;;;;;;;5034952;28;20107;-62
2023/10/18 10:34:26;;;;;;;2.88;1.05;;;;;;;;;;5032258;28;20643;-62
2023/10/18 10:37:08;;;;;;;3.03;1.23;;;;;;;;;;5030398;28;20069;-61
2023/10/18 10:39:35;;;;;;;3.45;1.20;;;;;;;;;;5033374;28;20049;-61
2023/10/18 10:42:08;;;;;;;4.35;1.20;;;;;;;;;;5037062;28;20068;-59
2023/10/18 10:44:54;;;;;;;1.90;0.80;;;;;;;;;;5037433;28;20061;-61
2023/10/18 10:47:31;;;;;;;2.85;1.13;;;;;;;;;;5030605;28;20076;-61
2023/10/18 10:50:00;;;;;;;3.60;1.17;;;;;;;;;;5030736;28;20068;-61
2023/10/18 10:52:29;;;;;;;2.70;1.13;;;;;;;;;;5034729;28;20217;-61
2023/10/18 10:55:02;;;;;;;2.65;1.20;;;;;;;;;;5033623;28;20385;-60
2023/10/18 10:57:32;;;;;;;3.05;1.33;;;;;;;;;;5032069;28;20518;-61
2023/10/18 11:00:05;;;;;;;3.25;1.27;;;;;;;;;;5032561;28;20069;-61
2023/10/18 11:02:40;;;;;;;3.92;1.17;;;;;;;;;;5031592;28;20087;-61
2023/10/18 11:05:15;;;;;;;2.47;1.00;;;;;;;;;;5030818;28;21669;-59
2023/10/18 11:07:42;;;;;;;4.25;1.20;;;;;;;;;;5031430;28;20058;-62
2023/10/18 11:10:14;;;;;;;4.03;1.10;;;;;;;;;;5029067;28;20072;-62
2023/10/18 11:12:40;;;;;;;2.17;1.10;;;;;;;;;;5032746;28;20114;-62
2023/10/18 11:15:16;;;;;;;2.22;1.02;;;;;;;;;;5034445;28;20036;-62
2023/10/18 11:17:44;;;;;;;4.28;1.10;;;;;;;;;;5034610;28;20060;-61
2023/10/18 11:20:19;;;;;;;3.30;1.17;;;;;;;;;;5032224;28;20064;-62
2023/10/18 11:22:45;;;;;;;3.30;1.20;;;;;;;;;;5036487;28;20060;-63
2023/10/18 11:25:14;;;;;;;8.32;0.90;;;;;;;;;;5036974;28;20660;-62
2023/10/18 11:27:39;;;;;;;3.15;1.00;;;;;;;;;;5035755;28;20510;-61
2023/10/18 11:32:52;;;;;;;1.83;0.90;;;;;;;;;;5035816;28;20055;-63
2023/10/18 11:35:25;;;;;;;2.83;1.05;;;;;;;;;;5034292;28;20064;-61
2023/10/18 11:37:51;;;;;;;2.72;1.10;;;;;;;;;;5029391;28;20146;-62
2023/10/18 11:40:29;;;;;;;2.53;1.10;;;;;;;;;;5031346;28;20678;-60
2023/10/18 11:43:10;;;;;;;3.88;1.15;;;;;;;;;;5032876;28;20045;-61
2023/10/18 11:45:39;;;;;;;21.05;1.40;;;;;;;;;;5033691;28;20057;-61
2023/10/18 11:48:06;;;;;;;4.05;1.00;;;;;;;;;;5031065;28;20425;-62
2023/10/18 11:50:47;;;;;;;3.97;1.10;;;;;;;;;;5030760;28;20107;-61
2023/10/18 11:53:13;;;;;;;6.00;0.80;;;;;;;;;;5031653;28;20737;-62
2023/10/18 11:56:13;;;;;;;4.72;1.00;;;;;;;;;;5029439;28;20496;-62
2023/10/18 11:58:41;;;;;;;3.70;1.00;;;;;;;;;;4984745;28;20065;-63
2023/10/18 12:01:16;;;;;;;2.55;0.88;;;;;;;;;;5033322;28;20464;-62
2023/10/18 12:03:43;;;;;;;4.25;1.10;;;;;;;;;;5032626;28;20061;-62
2023/10/18 12:06:11;;;;;;;2.45;0.90;;;;;;;;;;5036921;28;20073;-62
2023/10/18 12:09:25;;;;;;;2.45;0.98;;;;;;;;;;5028662;28;20245;-62
2023/10/18 12:11:41;;;;;;;3.97;0.90;;;;;;;;;;5030367;28;20447;-67
2023/10/18 12:14:08;;;;;;;2.30;1.20;;;;;;;;;;5031455;28;20044;-62
2023/10/18 12:16:33;;;;;;;3.65;1.10;;;;;;;;;;5030082;28;20060;-62
2023/10/18 12:19:00;;;;;;;2.08;0.77;;;;;;;;;;5035418;28;20546;-63
2023/10/18 12:21:29;;;;;;;2.97;0.88;;;;;;;;;;5031820;28;20057;-62
2023/10/18 12:23:55;;;;;;;2.22;0.88;;;;;;;;;;5028413;28;20077;-62
2023/10/18 12:26:24;;;;;;;2.85;0.90;;;;;;;;;;5030379;28;20779;-62
2023/10/18 12:28:55;;;;;;;6.22;1.10;;;;;;;;;;5032521;28;20052;-63
2023/10/18 12:31:26;;;;;;;2.47;1.17;;;;;;;;;;5034024;28;20057;-62
2023/10/18 12:33:57;;;;;;;4.03;1.00;;;;;;;;;;5034212;28;20048;-63
2023/10/18 12:36:23;;;;;;;5.20;1.55;;;;;;;;;;5037366;28;20072;-63
2023/10/18 12:38:49;;;;;;;5.30;1.38;;;;;;;;;;5021418;28;20037;-62
2023/10/18 12:43:44;;;;;;;3.22;1.02;;;;;;;;;;5034075;28;20041;-62
2023/10/18 12:46:15;;;;;;;2.28;0.77;;;;;;;;;;5035381;28;20490;-63
2023/10/18 12:48:42;;;;;;;2.30;1.10;;;;;;;;;;5034270;28;20132;-63
2023/10/18 12:51:08;;;;;;;3.90;1.10;;;;;;;;;;5034902;28;20076;-64
2023/10/18 12:53:39;;;;;;;3.63;0.98;;;;;;;;;;5037171;28;20049;-62
2023/10/18 12:58:54;;;;;;;5.80;1.13;;;;;;;;;;5033110;28;20052;-62
2023/10/18 13:01:22;;;;;;;4.95;0.90;;;;;;;;;;5031895;28;20056;-62
2023/10/18 13:03:58;;;;;;;7.35;0.95;;;;;;;;;;5034276;28;20110;-61
2023/10/18 13:06:43;;;;;;;4.03;1.05;;;;;;;;;;5018780;28;20079;-62
2023/10/18 13:09:15;;;;;;;2.30;0.90;;;;;;;;;;5034424;28;20530;-62
2023/10/18 13:12:07;;;;;;;3.83;1.10;;;;;;;;;;5034996;28;20068;-65
2023/10/18 13:14:34;;;;;;;3.75;1.10;;;;;;;;;;5037105;28;20061;-62
2023/10/18 13:17:03;;;;;;;2.92;1.17;;;;;;;;;;5034272;28;20100;-61
2023/10/18 13:19:28;;;;;;;2.50;0.90;;;;;;;;;;5031406;28;20064;-62
2023/10/18 13:21:54;;;;;;;5.13;0.90;;;;;;;;;;5033340;28;20053;-62
2023/10/18 13:26:49;;;;;;;2.42;1.13;;;;;;;;;;5036253;28;20031;-62
2023/10/18 13:31:47;;;;;;;4.68;0.75;;;;;;;;;;5037633;28;20504;-62
2023/10/18 13:34:19;;;;;;;1.85;0.70;;;;;;;;;;5033299;28;20576;-62
2023/10/18 13:36:48;;;;;;;4.63;1.10;;;;;;;;;;5032542;28;20113;-61
2023/10/18 13:39:13;;;;;;;2.60;0.90;;;;;;;;;;5017171;28;20079;-62
2023/10/18 13:41:40;;;;;;;1.92;0.77;;;;;;;;;;5033725;28;20021;-61
2023/10/18 13:44:07;;;;;;;2.30;0.90;;;;;;;;;;5033370;28;20076;-62
2023/10/18 13:46:33;;;;;;;3.63;0.93;;;;;;;;;;5033900;28;20056;-62
2023/10/18 13:48:59;;;;;;;2.38;0.80;;;;;;;;;;5031107;28;20116;-62
2023/10/18 13:51:24;;;;;;;4.13;0.98;;;;;;;;;;5033406;28;20106;-61
2023/10/18 13:53:51;;;;;;;3.15;0.77;;;;;;;;;;5033698;28;20041;-62
2023/10/18 13:56:18;;;;;;;2.95;0.95;;;;;;;;;;5034422;28;20049;-63
2023/10/18 13:58:43;;;;;;;12.48;1.13;;;;;;;;;;5033813;28;20056;-62
2023/10/18 14:01:14;;;;;;;3.78;1.15;;;;;;;;;;5032383;28;20033;-61
2023/10/18 14:03:42;;;;;;;2.03;0.80;;;;;;;;;;5034154;28;20076;-62
2023/10/18 14:06:10;;;;;;;1.88;0.80;;;;;;;;;;5033195;28;20129;-62
2023/10/18 14:08:35;;;;;;;2.63;0.80;;;;;;;;;;5036116;28;20053;-63
2023/10/18 14:11:01;;;;;;;4.28;0.98;;;;;;;;;;5031976;28;20039;-60
2023/10/18 14:13:27;;;;;;;1.70;0.73;;;;;;;;;;5013881;28;20036;-61
2023/10/18 14:15:53;;;;;;;6.97;1.15;;;;;;;;;;5030734;28;20073;-61
2023/10/18 14:18:19;;;;;;;3.30;1.02;;;;;;;;;;5029268;28;20106;-62
2023/10/18 14:20:50;;;;;;;2.75;1.00;;;;;;;;;;5028284;28;20052;-62
2023/10/18 14:23:19;;;;;;;4.70;1.08;;;;;;;;;;5028769;28;20064;-62
2023/10/18 14:25:45;;;;;;;2.88;0.98;;;;;;;;;;5028378;28;20118;-62
2023/10/18 14:28:12;;;;;;;1.75;0.80;;;;;;;;;;5028864;28;20061;-61
2023/10/18 14:30:38;;;;;;;1.83;0.90;;;;;;;;;;5025283;28;20060;-62
2023/10/18 14:33:07;;;;;;;2.05;0.75;;;;;;;;;;5029891;28;20041;-62
2023/10/18 14:35:32;;;;;;;1.38;0.60;;;;;;;;;;5027604;28;20064;-62
2023/10/18 14:38:06;;;;;;;4.55;1.10;;;;;;;;;;5031246;28;20528;-61
2023/10/18 14:40:34;;;;;;;3.83;1.38;;;;;;;;;;5028944;28;20701;-62
2023/10/18 14:43:06;;;;;;;6.88;1.77;;;;;;;;;;5028709;28;20052;-62
2023/10/18 14:45:35;;;;;;;8.32;2.15;;;;;;;;;;5028194;28;20123;-61
2023/10/18 14:48:01;;;;;;;6.75;2.58;;;;;;;;;;5033309;28;20550;-62
2023/10/18 14:50:27;;;;;;;7.65;2.35;;;;;;;;;;5032240;28;21356;-62
2023/10/18 14:52:53;;;;;;;5.63;1.83;;;;;;;;;;5035842;28;20116;-62
2023/10/18 14:55:18;;;;;;;6.63;2.22;;;;;;;;;;5035866;28;20037;-61
2023/10/18 14:57:44;;;;;;;6.13;2.25;;;;;;;;;;5036288;28;20106;-61
2023/10/18 15:00:18;;;;;;;8.88;2.05;;;;;;;;;;5033146;28;20088;-61
2023/10/18 15:02:44;;;;;;;;;;;;;;;;;;5037581;28;20056;-62
2023/10/18 15:05:10;;;;;;;6.20;2.22;;;;;;;;;;5034311;28;19913;-62
2023/10/18 15:07:39;;;;;;;9.30;2.60;;;;;;;;;;5033600;28;20076;-62
2023/10/18 15:10:08;;;;;;;5.22;1.80;;;;;;;;;;5032658;28;20068;-62
2023/10/18 15:12:34;;;;;;;4.47;1.88;;;;;;;;;;5033697;28;20057;-61
2023/10/18 15:14:59;;;;;;;6.60;2.13;;;;;;;;;;5032855;28;20091;-62
2023/10/18 15:17:26;;;;;;;7.05;2.10;;;;;;;;;;5032370;28;20044;-62
2023/10/18 15:19:52;;;;;;;7.85;2.30;;;;;;;;;;5030042;28;20478;-62
2023/10/18 15:22:21;;;;;;;7.57;2.03;;;;;;;;;;5034004;28;20345;-61
2023/10/18 15:24:49;;;;;;;8.30;2.45;;;;;;;;;;5033633;28;20300;-62
2023/10/18 15:27:15;;;;;;;6.35;2.10;;;;;;;;;;5032492;28;20627;-62
2023/10/18 15:29:41;;;;;;;10.10;2.22;;;;;;;;;;5036393;28;20072;-62
2023/10/18 15:32:08;;;;;;;7.15;2.15;;;;;;;;;;5032875;28;20135;-62
2023/10/18 15:34:33;;;;;;;6.82;2.20;;;;;;;;;;5030212;28;20175;-62
2023/10/18 15:37:01;;;;;;;6.63;2.60;;;;;;;;;;5032954;28;20024;-61
2023/10/18 15:39:27;;;;;;;5.88;1.80;;;;;;;;;;5031263;28;20107;-62
2023/10/18 15:41:53;;;;;;;5.53;1.88;;;;;;;;;;5032741;28;21083;-62
2023/10/18 15:44:18;;;;;;;8.45;2.33;;;;;;;;;;5032945;28;20052;-62
2023/10/18 15:46:44;;;;;;;8.82;2.28;;;;;;;;;;5031302;28;20041;-62
2023/10/18 15:49:13;;;;;;;4.82;1.98;;;;;;;;;;5031507;28;20109;-62
2023/10/18 15:51:40;;;;;;;5.07;1.63;;;;;;;;;;5033997;28;20623;-62
2023/10/18 15:54:06;;;;;;;4.57;1.90;;;;;;;;;;5034934;28;20127;-62
2023/10/18 15:56:32;;;;;;;6.35;2.00;;;;;;;;;;5032408;28;20061;-62
2023/10/18 15:59:01;;;;;;;5.93;2.22;;;;;;;;;;5031717;28;20148;-62
2023/10/18 16:01:27;;;;;;;6.38;1.80;;;;;;;;;;5031188;28;20119;-62
2023/10/18 16:03:52;;;;;;;5.90;1.95;;;;;;;;;;5028137;28;20073;-62
2023/10/18 16:06:19;;;;;;;8.13;2.17;;;;;;;;;;5032024;28;20552;-62
2023/10/18 16:08:46;;;;;;;7.55;2.38;;;;;;;;;;5029705;28;20087;-63
2023/10/18 16:11:12;;;;;;;6.15;2.25;;;;;;;;;;5015309;28;20064;-62